createdAt,value
2022-12-01T00:00:17.637Z,46.41
2022-12-01T00:10:28.592Z,46.38
2022-12-01T00:20:30.244Z,46.42
2022-12-01T00:30:31.756Z,46.36
2022-12-01T00:40:33.133Z,46.50
2022-12-01T00:50:34.594Z,46.45
2022-12-01T01:00:38.524Z,46.49
2022-12-01T01:10:44.724Z,46.43
2022-12-01T01:20:46.900Z,46.53
2022-12-01T01:30:48.540Z,46.45
2022-12-01T01:40:49.936Z,46.59
2022-12-01T01:50:51.463Z,46.57
2022-12-01T02:00:53.012Z,46.50
2022-12-01T02:11:18.012Z,46.69
2022-12-01T02:21:51.312Z,46.60
2022-12-01T02:32:03.887Z,46.66
2022-12-01T02:42:36.056Z,46.59
2022-12-01T02:52:38.558Z,46.61
2022-12-01T03:03:02.458Z,46.63
2022-12-01T03:13:16.052Z,46.54
2022-12-01T03:23:20.858Z,46.55
2022-12-01T03:33:27.894Z,46.57
2022-12-01T03:43:32.468Z,46.54
2022-12-01T03:53:44.689Z,46.58
2022-12-01T04:03:46.779Z,46.49
2022-12-01T04:13:48.179Z,46.60
2022-12-01T04:24:01.880Z,46.69
2022-12-01T04:34:04.032Z,46.80
2022-12-01T04:44:05.675Z,46.70
2022-12-01T04:54:07.241Z,46.76
2022-12-01T05:04:11.195Z,46.81
2022-12-01T05:14:12.748Z,46.57
2022-12-01T05:24:14.313Z,46.28
2022-12-01T05:34:15.924Z,45.90
2022-12-01T05:44:17.303Z,45.56
2022-12-01T05:54:18.690Z,45.48
2022-12-01T06:04:20.236Z,45.09
2022-12-01T06:14:21.648Z,44.87
2022-12-01T06:24:23.020Z,44.64
2022-12-01T06:34:24.704Z,44.51
2022-12-01T06:44:26.258Z,44.48
2022-12-01T06:54:27.648Z,44.26
2022-12-01T07:04:29.469Z,44.18
2022-12-01T07:14:31.578Z,44.21
2022-12-01T07:24:32.943Z,44.08
2022-12-01T07:34:34.304Z,44.02
2022-12-01T07:44:35.720Z,43.80
2022-12-01T07:54:37.163Z,43.82
2022-12-01T08:04:38.543Z,43.82
2022-12-01T08:14:40.112Z,43.68
2022-12-01T08:24:41.485Z,43.83
2022-12-01T08:34:43.052Z,43.59
2022-12-01T08:44:44.495Z,43.65
2022-12-01T08:54:45.956Z,43.53
2022-12-01T09:04:47.977Z,43.67
2022-12-01T09:14:49.544Z,43.56
2022-12-01T09:24:50.965Z,43.49
2022-12-01T09:34:52.421Z,43.38
2022-12-01T09:44:55.038Z,43.22
2022-12-01T09:54:57.440Z,43.13
2022-12-01T10:04:59.353Z,43.27
2022-12-01T10:15:18.285Z,43.29
2022-12-01T10:25:27.681Z,43.32
2022-12-01T10:35:31.992Z,43.18
2022-12-01T10:45:40.818Z,43.14
2022-12-01T10:55:47.829Z,43.23
2022-12-01T11:05:55.065Z,43.08
2022-12-01T11:15:57.235Z,42.81
2022-12-01T11:26:30.577Z,42.95
2022-12-01T11:36:42.794Z,42.93
2022-12-01T11:46:50.290Z,42.76
2022-12-01T11:57:31.818Z,42.66
2022-12-01T12:07:53.393Z,42.58
2022-12-01T12:18:03.919Z,42.61
2022-12-01T12:28:11.005Z,42.73
2022-12-01T12:38:31.834Z,42.62
2022-12-01T12:49:18.757Z,42.77
2022-12-01T12:59:34.557Z,42.58
2022-12-01T13:09:52.675Z,42.65
2022-12-01T13:19:54.190Z,42.77
2022-12-01T13:29:56.032Z,42.89
2022-12-01T13:40:20.038Z,43.06
2022-12-01T13:50:43.692Z,43.18
2022-12-01T14:00:45.907Z,43.32
2022-12-01T14:11:07.069Z,43.32
2022-12-01T14:21:10.406Z,43.48
2022-12-01T14:31:12.205Z,43.47
2022-12-01T14:41:22.803Z,43.38
2022-12-01T14:51:28.010Z,43.68
2022-12-01T15:01:34.469Z,43.61
2022-12-01T15:11:38.906Z,43.72
2022-12-01T15:21:40.297Z,43.80
2022-12-01T15:31:43.665Z,44.30
2022-12-01T15:41:46.366Z,44.31
2022-12-01T15:51:48.115Z,44.49
2022-12-01T16:01:49.570Z,44.62
2022-12-01T16:12:06.903Z,44.79
2022-12-01T16:22:13.960Z,44.98
2022-12-01T16:32:39.490Z,45.05
2022-12-01T16:42:40.928Z,45.11
2022-12-01T16:52:44.930Z,45.05
2022-12-01T17:02:47.199Z,45.14
2022-12-01T17:12:48.887Z,45.11
2022-12-01T17:22:50.333Z,45.11
2022-12-01T17:32:51.749Z,45.09
2022-12-01T17:42:53.169Z,45.13
2022-12-01T17:52:54.590Z,45.09
2022-12-01T18:02:56.114Z,45.23
2022-12-01T18:12:57.566Z,45.39
2022-12-01T18:22:58.966Z,45.40
2022-12-01T18:33:00.737Z,45.35
2022-12-01T18:43:02.123Z,45.47
2022-12-01T18:53:03.512Z,45.58
2022-12-01T19:03:04.956Z,45.46
2022-12-01T19:13:06.509Z,45.82
2022-12-01T19:23:07.906Z,45.77
2022-12-01T19:33:09.308Z,46.13
2022-12-01T19:43:10.693Z,46.15
2022-12-01T19:53:12.271Z,46.23
2022-12-01T20:03:14.832Z,46.29
2022-12-01T20:13:16.233Z,46.32
2022-12-01T20:23:17.678Z,46.46
2022-12-01T20:33:19.172Z,46.42
2022-12-01T20:43:20.632Z,46.46
2022-12-01T20:53:22.215Z,46.36
2022-12-01T21:03:23.677Z,46.43
2022-12-01T21:13:44.176Z,46.50
2022-12-01T21:23:45.705Z,46.46
2022-12-01T21:33:47.173Z,46.36
2022-12-01T21:43:48.559Z,46.17
2022-12-01T21:53:51.048Z,46.25
2022-12-01T22:03:52.561Z,46.38
2022-12-01T22:14:06.222Z,46.35
2022-12-01T22:24:07.430Z,46.49
2022-12-01T22:34:09.898Z,46.43
2022-12-01T22:44:11.270Z,46.35
2022-12-01T22:54:12.467Z,46.38
2022-12-01T23:04:26.510Z,46.46
2022-12-01T23:14:28.525Z,46.44
2022-12-01T23:24:33.838Z,46.50
2022-12-01T23:34:35.632Z,46.56
2022-12-01T23:44:39.777Z,46.38
2022-12-01T23:54:41.169Z,46.67
